Time;durP1;ratioP1;P1;durP2;ratioP2;P2;SDS_P1;SDS_P2;PMS_P1;PMS_P2;Temp;Humidity;BMP_temperature;BMP_pressure;BME280_temperature;BME280_humidity;BME280_pressure;Samples;Min_cycle;Max_cycle;Signal;HPM_P1;HPM_P2
2021/12/19 00:01:06;;;;;;;20.17;6.53;;;7.00;94.10;;;;;;5019508;28;20196;-90
2021/12/19 00:09:03;;;;;;;24.03;6.70;;;7.00;94.00;;;;;;5037641;28;20187;-88
2021/12/19 00:11:29;;;;;;;18.70;5.37;;;7.00;93.80;;;;;;5019142;28;20580;-88
2021/12/19 00:13:56;;;;;;;20.00;6.03;;;7.00;93.80;;;;;;5019335;28;20267;-90
2021/12/19 00:16:23;;;;;;;16.53;5.10;;;7.00;93.70;;;;;;5019237;28;20207;-90
2021/12/19 00:18:50;;;;;;;19.10;6.10;;;7.00;93.60;;;;;;5019207;28;20173;-90
2021/12/19 00:21:17;;;;;;;21.07;6.30;;;7.00;93.60;;;;;;5018955;28;20550;-90
2021/12/19 00:23:45;;;;;;;15.63;6.13;;;7.00;93.30;;;;;;5018965;28;20592;-89
2021/12/19 00:26:11;;;;;;;22.80;5.63;;;7.00;93.20;;;;;;5018985;28;20645;-89
2021/12/19 00:28:37;;;;;;;30.00;6.63;;;7.00;93.10;;;;;;5018998;28;20660;-88
2021/12/19 00:31:04;;;;;;;18.70;6.23;;;7.00;92.80;;;;;;5036623;28;20211;-88
2021/12/19 00:33:29;;;;;;;24.83;5.80;;;7.00;92.60;;;;;;5018891;28;20180;-89
2021/12/19 00:35:55;;;;;;;16.47;5.23;;;7.10;92.60;;;;;;5018959;28;20545;-89
2021/12/19 00:38:21;;;;;;;28.90;6.63;;;7.10;92.60;;;;;;5018834;28;20175;-89
2021/12/19 00:40:47;;;;;;;22.93;5.97;;;7.10;92.50;;;;;;5036379;28;20223;-89
2021/12/19 00:43:24;;;;;;;17.63;4.60;;;7.20;92.30;;;;;;5036416;28;20628;-89
2021/12/19 00:45:51;;;;;;;20.87;6.40;;;7.20;92.30;;;;;;5018806;28;20168;-89
2021/12/19 00:48:18;;;;;;;18.90;5.93;;;7.20;92.20;;;;;;5036270;28;20180;-89
2021/12/19 00:50:44;;;;;;;17.47;6.20;;;7.10;92.10;;;;;;5018579;28;20566;-89
2021/12/19 00:53:11;;;;;;;24.07;6.90;;;7.20;92.00;;;;;;5018548;28;20176;-88
2021/12/19 00:55:37;;;;;;;23.77;6.53;;;7.10;92.10;;;;;;5036109;28;20200;-88
2021/12/19 00:58:03;;;;;;;22.23;6.90;;;7.20;92.10;;;;;;5018652;28;20179;-88
2021/12/19 01:00:32;;;;;;;22.13;6.83;;;7.10;92.20;;;;;;5018350;28;20194;-89
2021/12/19 01:02:59;;;;;;;24.27;6.27;;;7.10;92.20;;;;;;5017629;28;20550;-89
2021/12/19 01:05:27;;;;;;;20.67;5.73;;;7.10;92.20;;;;;;5018332;28;20200;-90
2021/12/19 01:07:53;;;;;;;24.27;7.67;;;7.10;92.30;;;;;;5018325;28;20183;-89
2021/12/19 01:10:19;;;;;;;28.43;8.03;;;7.10;92.30;;;;;;5018031;28;20196;-90
2021/12/19 01:12:45;;;;;;;19.03;5.13;;;7.10;92.20;;;;;;5018255;28;20176;-89
2021/12/19 01:15:14;;;;;;;19.97;6.80;;;7.10;92.20;;;;;;5035756;28;20204;-88
2021/12/19 01:17:40;;;;;;;26.10;7.33;;;7.20;92.10;;;;;;5018214;28;20553;-88
2021/12/19 01:20:22;;;;;;;27.37;6.63;;;7.20;92.20;;;;;;5035751;28;20295;-90
2021/12/19 01:22:49;;;;;;;27.47;6.33;;;7.20;92.20;;;;;;5035995;28;20210;-87
2021/12/19 01:25:15;;;;;;;19.63;6.57;;;7.20;92.20;;;;;;5018215;28;20198;-89
2021/12/19 01:27:42;;;;;;;15.63;5.20;;;7.20;92.10;;;;;;5017991;28;20691;-88
2021/12/19 01:30:10;;;;;;;17.23;6.13;;;7.20;92.10;;;;;;5035476;28;20214;-88
2021/12/19 01:32:36;;;;;;;20.50;6.33;;;7.20;92.10;;;;;;5017877;28;20553;-89
2021/12/19 01:35:02;;;;;;;15.03;4.97;;;7.20;92.10;;;;;;5035533;28;20197;-89
2021/12/19 01:37:28;;;;;;;20.27;6.20;;;7.20;91.90;;;;;;5017677;28;20200;-87
2021/12/19 01:39:54;;;;;;;17.37;6.67;;;7.20;91.90;;;;;;5035528;28;20701;-89
2021/12/19 01:42:20;;;;;;;27.43;6.73;;;7.20;91.90;;;;;;5017673;28;20169;-89
2021/12/19 01:44:49;;;;;;;28.70;6.40;;;7.20;92.10;;;;;;5017543;28;20536;-88
2021/12/19 01:47:15;;;;;;;14.73;4.70;;;7.20;92.10;;;;;;5017619;28;20550;-89
2021/12/19 01:49:41;;;;;;;20.23;6.00;;;7.20;92.00;;;;;;5017428;28;20187;-89
2021/12/19 01:52:07;;;;;;;24.63;5.80;;;7.20;92.00;;;;;;5035210;28;20169;-89
2021/12/19 01:54:32;;;;;;;19.27;5.47;;;7.20;92.10;;;;;;5017300;28;20205;-89
2021/12/19 01:56:58;;;;;;;18.50;5.20;;;7.20;92.20;;;;;;5035400;28;20176;-89
2021/12/19 01:59:24;;;;;;;27.23;5.77;;;7.20;92.40;;;;;;5034979;28;20195;-89
2021/12/19 02:01:52;;;;;;;28.27;6.77;;;7.20;92.50;;;;;;5034897;28;20217;-89
2021/12/19 02:04:29;;;;;;;22.07;6.33;;;7.10;92.60;;;;;;5017115;28;20683;-88
2021/12/19 02:06:55;;;;;;;19.10;5.03;;;7.10;92.80;;;;;;5017147;28;20234;-88
2021/12/19 02:09:21;;;;;;;25.70;6.53;;;7.10;93.00;;;;;;5017094;28;20215;-89
2021/12/19 02:11:47;;;;;;;18.10;5.33;;;7.10;93.10;;;;;;5016949;28;20200;-89
2021/12/19 02:14:12;;;;;;;33.83;6.57;;;7.10;93.10;;;;;;5016037;28;20180;-89
2021/12/19 02:16:40;;;;;;;23.53;6.43;;;7.10;93.00;;;;;;5017043;28;20250;-87
2021/12/19 02:19:07;;;;;;;22.47;6.03;;;7.20;93.00;;;;;;5016849;28;20183;-88
2021/12/19 02:21:32;;;;;;;26.17;6.50;;;7.10;93.00;;;;;;5016916;28;20602;-89
2021/12/19 02:24:00;;;;;;;26.57;6.90;;;7.20;93.10;;;;;;5034448;28;20188;-89
2021/12/19 02:26:25;;;;;;;30.00;6.93;;;7.10;93.20;;;;;;5016789;28;20577;-89
2021/12/19 02:28:51;;;;;;;31.67;6.77;;;7.20;93.30;;;;;;5016761;28;20185;-89
2021/12/19 02:31:17;;;;;;;29.23;6.30;;;7.10;93.20;;;;;;5016497;28;20315;-89
2021/12/19 02:33:56;;;;;;;16.83;4.83;;;7.10;93.00;;;;;;5016589;28;20611;-89
2021/12/19 02:36:36;;;;;;;15.20;4.40;;;7.20;93.00;;;;;;5016610;28;20228;-89
2021/12/19 02:50:18;;;;;;;24.07;6.37;;;7.10;92.60;;;;;;5034456;28;20248;-89
2021/12/19 02:52:44;;;;;;;23.53;5.37;;;7.20;92.50;;;;;;5034234;28;20171;-88
2021/12/19 02:55:13;;;;;;;24.80;6.73;;;7.10;92.40;;;;;;5016310;28;20236;-90
2021/12/19 02:57:40;;;;;;;24.00;5.63;;;7.10;92.40;;;;;;5033971;28;20640;-89
2021/12/19 03:00:12;;;;;;;16.10;6.23;;;7.10;92.50;;;;;;5016083;28;20592;-90
2021/12/19 03:02:38;;;;;;;18.30;5.73;;;7.10;92.50;;;;;;5016213;28;20214;-91
2021/12/19 03:05:06;;;;;;;25.80;7.00;;;7.10;92.60;;;;;;5016956;28;20180;-90
2021/12/19 03:07:32;;;;;;;27.70;6.53;;;7.10;92.60;;;;;;5033748;28;20581;-89
2021/12/19 03:18:07;;;;;;;26.23;6.80;;;7.10;92.90;;;;;;5033941;28;20183;-89
2021/12/19 03:20:33;;;;;;;27.33;6.50;;;7.00;93.10;;;;;;5015872;28;20264;-89
2021/12/19 03:22:59;;;;;;;20.77;5.07;;;7.00;93.20;;;;;;5016672;28;20511;-90
2021/12/19 03:25:25;;;;;;;14.83;4.70;;;7.00;93.00;;;;;;5033178;28;20182;-89
2021/12/19 03:27:51;;;;;;;15.80;4.13;;;7.00;92.90;;;;;;5015716;28;20242;-89
2021/12/19 03:30:18;;;;;;;15.53;4.27;;;7.00;92.80;;;;;;5015563;28;20307;-89
2021/12/19 03:32:47;;;;;;;15.43;3.90;;;6.90;92.60;;;;;;5033362;28;20223;-90
2021/12/19 03:35:13;;;;;;;5.73;2.97;;;6.90;92.40;;;;;;5033299;28;20254;-89
2021/12/19 03:37:42;;;;;;;8.33;2.70;;;6.90;92.50;;;;;;5016104;28;20254;-90
2021/12/19 03:40:12;;;;;;;7.70;2.80;;;6.80;92.70;;;;;;5033270;28;20647;-90
2021/12/19 03:42:45;;;;;;;6.23;2.40;;;6.80;92.90;;;;;;5033638;28;20247;-90
2021/12/19 03:45:14;;;;;;;6.67;2.30;;;6.80;93.20;;;;;;5015824;28;20179;-89
2021/12/19 03:47:40;;;;;;;11.57;2.90;;;6.70;93.40;;;;;;5033286;28;20303;-89
2021/12/19 03:50:09;;;;;;;8.30;2.63;;;6.70;93.60;;;;;;5015410;28;20200;-90
2021/12/19 03:52:35;;;;;;;5.17;2.20;;;6.70;93.70;;;;;;5015646;28;20579;-90
2021/12/19 03:55:01;;;;;;;5.80;1.90;;;6.60;93.90;;;;;;5015406;28;20295;-88
2021/12/19 03:57:26;;;;;;;2.70;1.50;;;6.60;94.10;;;;;;5033162;28;20256;-90
2021/12/19 03:59:52;;;;;;;7.47;1.80;;;6.60;94.30;;;;;;5015363;28;20564;-90
2021/12/19 04:02:24;;;;;;;5.37;1.40;;;6.60;94.40;;;;;;5033111;28;20181;-89
2021/12/19 04:04:50;;;;;;;5.33;1.63;;;6.60;94.50;;;;;;5033410;28;20510;-89
2021/12/19 04:07:16;;;;;;;5.20;1.93;;;6.60;94.50;;;;;;5015288;28;20659;-90
2021/12/19 04:09:42;;;;;;;8.57;1.80;;;6.60;94.40;;;;;;5015314;28;20188;-88
2021/12/19 04:12:08;;;;;;;5.07;1.37;;;6.60;94.40;;;;;;5033009;28;20180;-89
2021/12/19 04:14:34;;;;;;;4.03;1.43;;;6.70;94.20;;;;;;5015267;28;20711;-89
2021/12/19 04:17:00;;;;;;;6.93;1.13;;;6.70;94.10;;;;;;5015296;28;20173;-88
2021/12/19 04:19:26;;;;;;;5.27;1.60;;;6.70;94.00;;;;;;5033015;28;20260;-91
2021/12/19 04:21:52;;;;;;;6.30;1.90;;;6.70;94.00;;;;;;5015218;28;20246;-90
2021/12/19 04:24:18;;;;;;;5.27;1.57;;;6.70;94.10;;;;;;5015264;28;20184;-88
2021/12/19 04:26:44;;;;;;;5.37;1.73;;;6.70;94.20;;;;;;5033157;28;20223;-88
2021/12/19 04:29:10;;;;;;;7.43;2.00;;;6.70;94.40;;;;;;5015198;28;20181;-90
2021/12/19 04:31:36;;;;;;;8.90;2.17;;;6.70;94.40;;;;;;5015023;28;20726;-90
2021/12/19 04:34:03;;;;;;;12.90;2.83;;;6.70;94.40;;;;;;5032772;28;20671;-89
2021/12/19 04:36:33;;;;;;;17.63;2.80;;;6.70;94.20;;;;;;5015179;28;20235;-89
2021/12/19 04:42:12;;;;;;;15.80;3.13;;;6.80;93.80;;;;;;5036621;28;20200;-89
2021/12/19 05:00:03;;;;;;;12.87;3.20;;;6.80;93.80;;;;;;5036143;28;20530;-90
2021/12/19 05:15:45;;;;;;;14.03;3.37;;;6.90;93.40;;;;;;5035924;28;20207;-90
2021/12/19 05:18:11;;;;;;;11.37;2.43;;;6.90;93.40;;;;;;5018000;28;20553;-90
2021/12/19 05:20:39;;;;;;;13.67;2.80;;;6.90;93.30;;;;;;5017949;28;20291;-89
2021/12/19 05:23:17;;;;;;;15.30;2.97;;;6.90;93.20;;;;;;5018858;28;20268;-89
2021/12/19 05:25:43;;;;;;;12.10;3.20;;;6.90;93.10;;;;;;5018077;28;20172;-88
2021/12/19 05:28:08;;;;;;;19.23;2.90;;;6.90;93.10;;;;;;5035593;28;20231;-87
2021/12/19 05:30:34;;;;;;;11.20;2.40;;;7.00;93.10;;;;;;5017764;28;20224;-90
2021/12/19 05:33:01;;;;;;;24.17;3.50;;;7.00;93.00;;;;;;5017865;28;20199;-88
2021/12/19 05:35:50;;;;;;;16.90;3.30;;;7.00;93.00;;;;;;5017658;28;20204;-89
2021/12/19 05:46:26;;;;;;;12.93;2.97;;;7.00;92.80;;;;;;5035743;28;20164;-90
2021/12/19 05:48:53;;;;;;;19.20;3.30;;;7.00;92.80;;;;;;5017920;28;20181;-89
2021/12/19 05:51:18;;;;;;;14.60;3.03;;;7.00;92.80;;;;;;5017725;28;20572;-89
2021/12/19 05:53:44;;;;;;;16.00;2.80;;;7.00;92.60;;;;;;5035242;28;20171;-88
2021/12/19 05:56:10;;;;;;;20.57;3.43;;;7.00;92.50;;;;;;5017631;28;20211;-89
2021/12/19 05:58:36;;;;;;;22.77;3.67;;;7.00;92.40;;;;;;5017379;28;20256;-89
2021/12/19 06:01:02;;;;;;;24.20;4.00;;;7.00;92.50;;;;;;5034983;28;20189;-89
2021/12/19 06:03:27;;;;;;;17.67;2.90;;;7.00;92.30;;;;;;5017145;28;20195;-89
2021/12/19 06:05:53;;;;;;;15.13;2.97;;;7.10;91.90;;;;;;5017190;28;20326;-90
2021/12/19 06:08:18;;;;;;;14.30;2.63;;;7.10;91.70;;;;;;5035116;28;20177;-89
2021/12/19 06:10:44;;;;;;;9.50;2.80;;;7.10;91.70;;;;;;5017076;28;20196;-89
2021/12/19 06:13:10;;;;;;;16.00;2.93;;;7.10;91.50;;;;;;5034795;28;20716;-89
2021/12/19 06:15:36;;;;;;;17.10;2.73;;;7.10;91.40;;;;;;5016975;28;20295;-90
2021/12/19 06:18:03;;;;;;;12.93;2.80;;;7.10;91.20;;;;;;5017008;28;20183;-89
2021/12/19 06:20:31;;;;;;;15.73;2.93;;;7.10;91.10;;;;;;5034535;28;20185;-89
2021/12/19 06:23:00;;;;;;;18.57;3.03;;;7.10;91.10;;;;;;5016964;28;20181;-89
2021/12/19 06:25:26;;;;;;;10.80;2.63;;;7.10;91.00;;;;;;5017199;28;20177;-89
2021/12/19 06:27:52;;;;;;;17.13;3.63;;;7.10;90.80;;;;;;5017295;28;20172;-89
2021/12/19 06:30:17;;;;;;;11.07;3.27;;;7.10;90.80;;;;;;5034217;28;20719;-89
2021/12/19 06:32:43;;;;;;;11.97;2.53;;;7.10;90.90;;;;;;5016734;28;20184;-89
2021/12/19 06:35:17;;;;;;;18.30;3.03;;;7.10;91.00;;;;;;5034288;28;20200;-89
2021/12/19 06:37:45;;;;;;;14.17;3.53;;;7.10;91.10;;;;;;5016560;28;20164;-89
2021/12/19 06:40:14;;;;;;;10.83;3.13;;;7.10;91.00;;;;;;5016483;28;20219;-91
2021/12/19 06:42:39;;;;;;;7.53;2.83;;;7.10;91.10;;;;;;5034180;28;20173;-89
2021/12/19 06:45:06;;;;;;;17.63;3.30;;;7.10;91.20;;;;;;5017229;28;20641;-90
2021/12/19 06:47:32;;;;;;;19.50;3.30;;;7.10;91.20;;;;;;5016936;28;20181;-89
2021/12/19 06:49:58;;;;;;;16.80;3.10;;;7.10;91.30;;;;;;5016379;28;20196;-89
2021/12/19 06:52:24;;;;;;;19.97;3.63;;;7.10;91.30;;;;;;5034050;28;20659;-89
2021/12/19 06:54:50;;;;;;;12.53;3.23;;;7.10;91.40;;;;;;5016244;28;20274;-89
2021/12/19 06:57:15;;;;;;;14.77;2.63;;;7.10;91.60;;;;;;5033948;28;20644;-89
2021/12/19 06:59:41;;;;;;;9.40;2.53;;;7.10;91.70;;;;;;5016102;28;20176;-91
2021/12/19 07:02:07;;;;;;;20.13;3.27;;;7.10;91.70;;;;;;5015782;28;20176;-90
2021/12/19 07:04:33;;;;;;;13.30;3.00;;;7.00;91.60;;;;;;5016330;28;20173;-89
2021/12/19 07:06:58;;;;;;;12.60;3.17;;;7.00;91.30;;;;;;5016183;28;20231;-90
2021/12/19 07:09:24;;;;;;;12.13;2.83;;;7.00;91.40;;;;;;5016403;28;20188;-88
2021/12/19 07:11:50;;;;;;;15.97;2.77;;;7.10;91.10;;;;;;5033623;28;20200;-90
2021/12/19 07:14:15;;;;;;;10.77;2.73;;;7.10;91.20;;;;;;5016006;28;20597;-88
2021/12/19 07:16:41;;;;;;;13.03;2.33;;;7.10;91.10;;;;;;5015962;28;20311;-91
2021/12/19 07:19:06;;;;;;;20.53;3.20;;;7.10;91.00;;;;;;5033673;28;20164;-90
2021/12/19 07:21:32;;;;;;;9.10;2.40;;;7.10;91.10;;;;;;5015848;28;20215;-89
2021/12/19 07:23:58;;;;;;;22.07;3.40;;;7.10;91.20;;;;;;5033525;28;20204;-89
2021/12/19 07:26:23;;;;;;;14.83;2.87;;;7.20;91.00;;;;;;5015902;28;20267;-89
2021/12/19 07:28:50;;;;;;;17.93;3.10;;;7.20;90.90;;;;;;5015732;28;20180;-89
2021/12/19 07:31:17;;;;;;;15.43;3.13;;;7.20;90.90;;;;;;5015589;28;20212;-88
2021/12/19 07:33:45;;;;;;;16.27;2.90;;;7.20;91.00;;;;;;5015831;28;20180;-89
2021/12/19 07:36:11;;;;;;;13.30;2.90;;;7.10;91.00;;;;;;5033307;28;20192;-90
2021/12/19 07:38:49;;;;;;;14.03;3.07;;;7.20;90.80;;;;;;5015712;28;20172;-88
2021/12/19 07:41:14;;;;;;;20.83;3.20;;;7.10;90.70;;;;;;5015627;28;20196;-88
2021/12/19 07:43:40;;;;;;;14.10;2.70;;;7.10;90.70;;;;;;5015735;28;20173;-90
2021/12/19 07:46:05;;;;;;;15.10;3.77;;;7.20;90.40;;;;;;5015617;28;20649;-88
2021/12/19 07:48:31;;;;;;;17.60;3.33;;;7.20;90.30;;;;;;5033275;28;20208;-89
2021/12/19 07:50:57;;;;;;;16.67;3.10;;;7.20;90.40;;;;;;5015859;28;20539;-89
2021/12/19 07:53:23;;;;;;;22.10;3.50;;;7.20;90.30;;;;;;5033174;28;20175;-89
2021/12/19 07:55:49;;;;;;;19.60;3.63;;;7.20;90.20;;;;;;5015421;28;20200;-90
2021/12/19 07:58:15;;;;;;;23.93;3.50;;;7.20;90.40;;;;;;5015601;28;20173;-87
2021/12/19 08:00:41;;;;;;;13.47;3.10;;;7.20;90.40;;;;;;5015450;28;20196;-90
2021/12/19 08:03:06;;;;;;;20.73;3.37;;;7.20;90.60;;;;;;5015446;28;20179;-89
2021/12/19 08:05:32;;;;;;;25.20;3.77;;;7.20;90.90;;;;;;5015396;28;20266;-90
2021/12/19 08:08:02;;;;;;;21.90;5.53;;;7.30;91.10;;;;;;5015431;28;20192;-90
2021/12/19 08:13:01;;;;;;;18.80;3.53;;;7.20;91.40;;;;;;5036057;28;20153;-89
2021/12/19 08:15:27;;;;;;;22.33;3.90;;;7.20;91.30;;;;;;5019006;28;20751;-89
2021/12/19 08:17:53;;;;;;;18.87;4.63;;;7.20;91.20;;;;;;5019251;28;20173;-89
2021/12/19 08:20:18;;;;;;;15.77;3.20;;;7.20;91.20;;;;;;5019133;28;20193;-89
2021/12/19 08:22:46;;;;;;;19.53;2.97;;;7.20;91.00;;;;;;5019184;28;20263;-89
2021/12/19 08:25:11;;;;;;;19.23;2.93;;;7.20;90.90;;;;;;5019100;28;20246;-89
2021/12/19 08:27:37;;;;;;;9.30;2.30;;;7.30;90.80;;;;;;5036982;28;20684;-89
2021/12/19 08:30:05;;;;;;;17.77;3.00;;;7.30;90.30;;;;;;5018788;28;20704;-89
2021/12/19 08:32:31;;;;;;;18.77;2.60;;;7.30;90.00;;;;;;5018949;28;20181;-89
2021/12/19 08:34:57;;;;;;;17.07;3.03;;;7.30;90.10;;;;;;5036550;28;20287;-89
2021/12/19 08:37:23;;;;;;;18.67;3.70;;;7.30;90.00;;;;;;5018886;28;20176;-89
2021/12/19 08:39:48;;;;;;;20.07;2.90;;;7.30;90.30;;;;;;5019082;28;20287;-90
2021/12/19 08:42:14;;;;;;;17.40;3.43;;;7.30;90.10;;;;;;5018813;28;20272;-89
2021/12/19 08:44:41;;;;;;;19.83;3.20;;;7.40;89.60;;;;;;5018842;28;20264;-89
2021/12/19 08:47:07;;;;;;;14.83;3.20;;;7.40;89.80;;;;;;5019609;28;20173;-89
2021/12/19 08:49:34;;;;;;;14.03;3.17;;;7.40;89.80;;;;;;5036268;28;20165;-89
2021/12/19 08:52:01;;;;;;;14.20;2.97;;;7.40;89.70;;;;;;5018623;28;20176;-88
2021/12/19 08:54:27;;;;;;;18.73;2.87;;;7.40;89.60;;;;;;5018450;28;20256;-88
2021/12/19 08:56:52;;;;;;;22.80;3.30;;;7.40;89.60;;;;;;5036187;28;20306;-89
2021/12/19 08:59:18;;;;;;;15.83;3.10;;;7.40;89.60;;;;;;5018556;28;20263;-89
2021/12/19 09:01:44;;;;;;;16.47;2.80;;;7.40;89.60;;;;;;5036300;28;20247;-89
2021/12/19 09:04:09;;;;;;;16.60;2.73;;;7.40;89.70;;;;;;5018722;28;20177;-89
2021/12/19 09:06:36;;;;;;;22.23;3.03;;;7.50;89.40;;;;;;5018338;28;20177;-89
2021/12/19 09:09:04;;;;;;;18.60;3.30;;;7.50;89.70;;;;;;5018257;28;20176;-89
2021/12/19 09:11:30;;;;;;;21.57;2.83;;;7.50;89.40;;;;;;5035910;28;20224;-89
2021/12/19 09:13:55;;;;;;;16.03;3.53;;;7.60;89.30;;;;;;5018273;28;20172;-89
2021/12/19 09:16:21;;;;;;;13.57;2.57;;;7.60;89.20;;;;;;5035730;28;20192;-88
2021/12/19 09:18:47;;;;;;;17.07;3.00;;;7.70;88.70;;;;;;5018276;28;20218;-89
2021/12/19 09:21:12;;;;;;;14.00;2.83;;;7.60;88.80;;;;;;5035687;28;20184;-89
2021/12/19 09:23:38;;;;;;;15.07;4.10;;;7.60;89.00;;;;;;5035085;28;20183;-89
2021/12/19 09:26:05;;;;;;;19.53;3.00;;;7.60;89.10;;;;;;5018300;28;20272;-89
2021/12/19 09:28:31;;;;;;;19.93;3.17;;;7.60;89.20;;;;;;5035616;28;20513;-89
2021/12/19 09:30:56;;;;;;;20.10;3.57;;;7.60;89.10;;;;;;5035515;28;20215;-88
2021/12/19 09:33:22;;;;;;;21.80;2.83;;;7.60;89.20;;;;;;5035575;28;20542;-89
2021/12/19 09:35:48;;;;;;;17.57;3.77;;;7.70;89.20;;;;;;5017753;28;20200;-88
2021/12/19 09:38:14;;;;;;;12.47;3.17;;;7.70;89.10;;;;;;5017834;28;20185;-88
2021/12/19 09:40:43;;;;;;;17.93;3.37;;;7.70;89.50;;;;;;5035329;28;20676;-88
2021/12/19 09:43:31;;;;;;;22.97;3.73;;;7.70;89.50;;;;;;5017633;28;20212;-89
2021/12/19 09:45:59;;;;;;;18.50;3.13;;;7.70;89.30;;;;;;5035157;28;20177;-90
2021/12/19 09:48:26;;;;;;;14.80;3.87;;;7.70;89.20;;;;;;5035277;28;20176;-89
2021/12/19 09:50:51;;;;;;;24.30;4.03;;;7.70;89.30;;;;;;5017469;28;20319;-89
2021/12/19 09:53:17;;;;;;;17.27;3.50;;;7.80;89.20;;;;;;5017397;28;20213;-89
2021/12/19 09:55:44;;;;;;;18.20;4.50;;;7.80;89.40;;;;;;5017344;28;20255;-89
2021/12/19 09:58:09;;;;;;;14.70;3.37;;;7.80;89.30;;;;;;5018247;28;20223;-89
2021/12/19 10:00:35;;;;;;;17.20;2.97;;;7.80;89.20;;;;;;5035148;28;20193;-87
2021/12/19 10:03:01;;;;;;;17.20;3.30;;;7.80;89.00;;;;;;5017277;28;20243;-89
2021/12/19 10:05:27;;;;;;;21.10;4.23;;;7.80;88.70;;;;;;5017227;28;20661;-89
2021/12/19 10:07:55;;;;;;;18.33;4.13;;;7.90;88.80;;;;;;5034904;28;20187;-87
2021/12/19 10:10:41;;;;;;;16.23;3.37;;;7.90;89.00;;;;;;5034731;28;20749;-89
2021/12/19 10:13:07;;;;;;;15.57;3.50;;;7.90;89.00;;;;;;5017120;28;20647;-89
2021/12/19 10:15:38;;;;;;;20.17;2.67;;;8.00;89.00;;;;;;5016985;28;20200;-87
2021/12/19 10:18:11;;;;;;;15.10;3.20;;;8.00;89.00;;;;;;5017005;28;20158;-90
2021/12/19 10:20:45;;;;;;;19.17;3.90;;;8.00;88.70;;;;;;5034549;28;20181;-91
2021/12/19 10:23:17;;;;;;;14.90;3.50;;;8.00;89.00;;;;;;5016859;28;20175;-91
2021/12/19 10:25:43;;;;;;;18.93;3.30;;;8.00;88.90;;;;;;5017871;28;20169;-90
2021/12/19 10:28:10;;;;;;;12.63;2.87;;;8.00;88.50;;;;;;5016968;28;20234;-90
2021/12/19 10:30:46;;;;;;;18.13;3.47;;;8.00;88.60;;;;;;5034401;28;20208;-89
2021/12/19 10:33:22;;;;;;;21.73;3.23;;;8.00;88.70;;;;;;5016685;28;20207;-88
2021/12/19 10:35:59;;;;;;;22.03;3.50;;;8.00;88.60;;;;;;5015822;28;20541;-88
2021/12/19 10:38:26;;;;;;;17.00;2.53;;;8.00;88.60;;;;;;5034323;28;20176;-87
2021/12/19 10:40:53;;;;;;;11.07;3.03;;;8.00;88.80;;;;;;5016844;28;20227;-89
2021/12/19 10:43:20;;;;;;;15.37;3.13;;;8.00;88.70;;;;;;5034215;28;20172;-88
2021/12/19 10:45:55;;;;;;;13.50;2.77;;;8.00;88.20;;;;;;5034180;28;20173;-89
2021/12/19 10:48:21;;;;;;;17.93;5.40;;;8.10;88.00;;;;;;5016485;28;20164;-89
2021/12/19 10:51:17;;;;;;;14.00;3.30;;;8.10;87.80;;;;;;5016518;28;20239;-88
2021/12/19 10:53:45;;;;;;;11.40;2.60;;;8.10;88.00;;;;;;5014971;28;20212;-88
2021/12/19 10:56:17;;;;;;;13.80;2.57;;;8.10;87.80;;;;;;5016200;28;20200;-89
2021/12/19 10:58:54;;;;;;;15.37;3.40;;;8.00;88.00;;;;;;5016283;28;20165;-89
2021/12/19 11:01:28;;;;;;;10.43;2.50;;;8.00;88.20;;;;;;5033824;28;20188;-90
2021/12/19 11:04:02;;;;;;;17.47;4.17;;;8.00;88.20;;;;;;5016140;28;20168;-89
2021/12/19 11:06:34;;;;;;;16.33;2.93;;;8.00;88.40;;;;;;5016118;28;20637;-88
2021/12/19 11:09:14;;;;;;;11.03;2.57;;;8.00;88.10;;;;;;5015956;28;20169;-89
2021/12/19 11:11:53;;;;;;;19.17;2.97;;;8.00;88.30;;;;;;5015890;28;20684;-88
2021/12/19 11:14:25;;;;;;;11.57;2.63;;;8.00;88.20;;;;;;5033623;28;20180;-88
2021/12/19 11:16:57;;;;;;;18.27;3.10;;;8.00;88.40;;;;;;5015732;28;20203;-88
2021/12/19 11:19:24;;;;;;;13.10;2.50;;;8.00;88.40;;;;;;5015983;28;20168;-88
2021/12/19 11:21:51;;;;;;;8.20;2.37;;;8.00;88.40;;;;;;5033339;28;20196;-88
2021/12/19 11:24:19;;;;;;;12.00;2.63;;;8.00;88.20;;;;;;5015855;28;20211;-89
2021/12/19 11:26:48;;;;;;;14.33;3.37;;;8.00;88.30;;;;;;5015677;28;20237;-90
2021/12/19 11:29:14;;;;;;;18.90;2.43;;;8.00;88.30;;;;;;5016097;28;20180;-88
2021/12/19 11:31:44;;;;;;;19.40;3.63;;;8.00;88.10;;;;;;5115820;23;20254;-94
2021/12/19 11:34:15;;;;;;;17.63;5.00;;;8.00;88.20;;;;;;5035395;28;20167;-94
2021/12/19 11:36:44;;;;;;;14.27;2.60;;;8.00;88.40;;;;;;5036562;28;20197;-94
2021/12/19 11:39:11;;;;;;;14.87;2.80;;;8.00;88.50;;;;;;5036418;28;20177;-94
2021/12/19 11:41:39;;;;;;;14.73;3.33;;;8.10;88.50;;;;;;5036984;28;20192;-94
2021/12/19 11:44:08;;;;;;;15.93;3.50;;;8.10;88.60;;;;;;5034924;28;20176;-93
2021/12/19 11:46:53;;;;;;;15.03;2.93;;;8.10;88.60;;;;;;5036847;28;20656;-94
2021/12/19 11:49:25;;;;;;;13.37;3.03;;;8.10;88.60;;;;;;5040989;28;20177;-94
2021/12/19 11:52:22;;;;;;;16.93;3.70;;;8.20;88.60;;;;;;5042242;28;20227;-94
2021/12/19 11:55:13;;;;;;;16.40;2.80;;;8.20;88.20;;;;;;5028427;28;20195;-94
2021/12/19 11:57:43;;;;;;;17.87;3.60;;;8.20;88.20;;;;;;5043585;28;20173;-94
2021/12/19 12:00:31;;;;;;;16.60;3.63;;;8.20;88.20;;;;;;5040923;28;20246;-94
2021/12/19 12:03:12;;;;;;;21.47;3.00;;;8.20;88.30;;;;;;5039687;28;20180;-94
2021/12/19 12:05:46;;;;;;;15.20;3.10;;;8.20;88.10;;;;;;5037790;28;20199;-94
2021/12/19 12:08:15;;;;;;;18.60;3.77;;;8.10;88.10;;;;;;5037172;28;20169;-94
2021/12/19 12:10:54;;;;;;;13.83;3.00;;;8.20;88.10;;;;;;5036643;28;20197;-94
2021/12/19 12:13:37;;;;;;;15.17;3.50;;;8.20;88.10;;;;;;5038531;28;20169;-94
2021/12/19 12:16:13;;;;;;;21.40;4.53;;;8.10;88.10;;;;;;5043402;28;20203;-95
2021/12/19 12:18:41;;;;;;;20.10;3.77;;;8.10;88.20;;;;;;5041550;28;20640;-94
2021/12/19 12:21:25;;;;;;;24.60;4.77;;;8.10;88.00;;;;;;5043727;28;20227;-94
2021/12/19 12:24:06;;;;;;;16.03;4.57;;;8.10;87.90;;;;;;5037452;28;20164;-94
2021/12/19 12:26:50;;;;;;;14.73;3.07;;;8.10;87.80;;;;;;5042455;28;20686;-95
2021/12/19 12:29:26;;;;;;;13.47;3.60;;;8.00;88.00;;;;;;5056159;28;20169;-96
2021/12/19 12:31:54;;;;;;;20.40;4.50;;;8.10;87.50;;;;;;5055011;28;20211;-96
2021/12/19 12:34:23;;;;;;;17.57;3.20;;;8.10;87.90;;;;;;5057168;28;20199;-96
2021/12/19 12:36:49;;;;;;;16.03;3.00;;;8.10;87.90;;;;;;5055744;28;20208;-95
2021/12/19 12:39:22;;;;;;;15.40;3.53;;;8.00;87.60;;;;;;5057741;28;20157;-95
2021/12/19 12:41:58;;;;;;;19.53;3.40;;;8.00;87.70;;;;;;5057212;28;20200;-94
2021/12/19 12:44:25;;;;;;;20.33;4.20;;;8.00;87.70;;;;;;5049076;28;20165;-94
2021/12/19 12:46:54;;;;;;;18.30;4.00;;;8.00;87.60;;;;;;5042627;28;20192;-94
2021/12/19 12:49:34;;;;;;;21.47;3.97;;;8.00;86.90;;;;;;5048018;28;20164;-95
2021/12/19 13:38:36;;;;;;;25.90;5.27;;;7.90;81.50;;;;;;604452;22;20490;-90
2021/12/19 13:41:05;;;;;;;19.00;4.23;;;7.90;80.70;;;;;;5058251;28;20216;-93
2021/12/19 13:43:33;;;;;;;30.63;6.07;;;7.80;81.20;;;;;;5053947;28;20173;-94
2021/12/19 13:45:59;;;;;;;24.47;4.87;;;7.80;81.30;;;;;;5054517;28;20191;-93
2021/12/19 14:04:05;;;;;;;25.57;5.40;;;7.50;81.80;;;;;;5096315;28;20203;-91
2021/12/19 14:06:36;;;;;;;24.07;4.87;;;7.40;82.10;;;;;;5079870;28;20189;-92
2021/12/19 14:09:11;;;;;;;23.90;5.00;;;7.40;82.20;;;;;;5097641;28;20155;-92
2021/12/19 14:11:43;;;;;;;29.83;4.70;;;7.30;82.70;;;;;;5099112;28;20186;-93
2021/12/19 14:14:26;;;;;;;28.93;5.63;;;7.30;83.10;;;;;;5099684;28;20167;-93
2021/12/19 14:17:11;;;;;;;24.20;4.37;;;7.30;83.30;;;;;;5098680;28;20222;-94
2021/12/19 14:20:28;;;;;;;31.17;5.37;;;7.30;83.10;;;;;;5098311;28;20168;-94
2021/12/19 14:22:29;;;;;;;39.00;7.10;;;7.30;83.90;;;;;;5088073;28;20208;-94
2021/12/19 14:25:01;;;;;;;31.07;5.70;;;7.20;84.20;;;;;;5094168;28;20195;-93
2021/12/19 14:27:29;;;;;;;27.03;6.03;;;7.20;83.90;;;;;;5092676;28;20159;-92
2021/12/19 14:29:55;;;;;;;32.13;5.87;;;7.10;83.70;;;;;;5099582;28;20181;-94
2021/12/19 14:32:44;;;;;;;37.23;5.87;;;7.20;83.40;;;;;;5096113;28;20164;-93
2021/12/19 14:35:23;;;;;;;34.10;6.77;;;7.00;83.50;;;;;;5094444;28;20186;-93
2021/12/19 14:37:51;;;;;;;35.63;6.33;;;7.00;83.60;;;;;;5095276;28;20179;-93
2021/12/19 14:40:21;;;;;;;37.83;5.90;;;6.90;83.90;;;;;;5096313;28;20190;-94
2021/12/19 14:43:02;;;;;;;37.00;6.63;;;6.90;84.20;;;;;;5097483;28;20194;-93
2021/12/19 14:45:30;;;;;;;55.83;6.40;;;6.80;84.40;;;;;;5097550;28;20229;-94
2021/12/19 14:48:05;;;;;;;39.40;6.93;;;6.80;84.70;;;;;;5096758;28;20151;-93
2021/12/19 15:01:49;;;;;;;42.87;6.83;;;6.60;85.80;;;;;;5425085;22;20220;-94
2021/12/19 15:04:58;;;;;;;35.83;6.57;;;6.60;85.90;;;;;;5120625;22;20230;-94
2021/12/19 15:07:41;;;;;;;;;;;;;;;;;;;;;
2021/12/19 15:10:08;;;;;;;43.47;7.93;;;6.50;86.30;;;;;;5098863;28;20167;-92
2021/12/19 15:12:49;;;;;;;46.90;9.03;;;6.40;86.50;;;;;;5285531;22;20211;-92
2021/12/19 15:38:43;;;;;;;47.03;8.83;;;6.20;87.60;;;;;;4871741;22;20273;-88
2021/12/19 15:41:09;;;;;;;46.13;7.73;;;6.10;87.80;;;;;;5053305;28;20175;-88